Time;durP1;ratioP1;P1;durP2;ratioP2;P2;SDS_P1;SDS_P2;PMS_P1;PMS_P2;Temp;Humidity;BMP_temperature;BMP_pressure;BME280_temperature;BME280_humidity;BME280_pressure;Samples;Min_cycle;Max_cycle;Signal;HPM_P1;HPM_P2
2022/01/28 00:00:35;;;;;;;0.00;0.00;;;;;;;;;;5054205;28;20045;-60
2022/01/28 00:05:26;;;;;;;0.35;0.10;;;;;;;;;;5054283;28;20048;-60
2022/01/28 00:07:52;;;;;;;0.00;0.00;;;;;;;;;;5053956;28;20045;-60
2022/01/28 00:10:18;;;;;;;0.17;0.00;;;;;;;;;;5053935;28;20017;-61
2022/01/28 00:15:29;;;;;;;0.00;0.00;;;;;;;;;;5054188;28;20017;-60
2022/01/28 00:36:31;;;;;;;0.00;0.00;;;;;;;;;;5054385;28;20102;-60
2022/01/28 00:39:08;;;;;;;0.00;0.00;;;;;;;;;;5053934;28;20048;-60
2022/01/28 00:41:34;;;;;;;0.00;0.00;;;;;;;;;;5053230;28;20020;-61
2022/01/28 00:43:59;;;;;;;0.00;0.00;;;;;;;;;;5053365;28;20753;-60
2022/01/28 00:46:24;;;;;;;0.00;0.00;;;;;;;;;;5050769;28;20017;-61
2022/01/28 00:48:49;;;;;;;0.00;0.00;;;;;;;;;;5053522;28;20473;-60
2022/01/28 00:51:14;;;;;;;0.00;0.00;;;;;;;;;;5053283;28;20029;-61
2022/01/28 00:53:39;;;;;;;0.00;0.00;;;;;;;;;;5053117;28;20113;-60
2022/01/28 00:56:04;;;;;;;0.00;0.00;;;;;;;;;;5053175;28;20250;-61
2022/01/28 00:58:30;;;;;;;0.00;0.00;;;;;;;;;;5051780;28;20107;-61
2022/01/28 01:00:55;;;;;;;0.00;0.00;;;;;;;;;;5053286;28;20461;-60
2022/01/28 01:03:20;;;;;;;0.00;0.00;;;;;;;;;;5052896;28;20461;-60
2022/01/28 01:05:45;;;;;;;0.00;0.00;;;;;;;;;;5052858;28;20350;-60
2022/01/28 01:08:11;;;;;;;0.00;0.00;;;;;;;;;;5052797;28;20419;-60
2022/01/28 01:10:36;;;;;;;0.00;0.00;;;;;;;;;;5052936;28;20469;-60
2022/01/28 01:13:02;;;;;;;0.00;0.00;;;;;;;;;;5053006;28;20453;-60
2022/01/28 01:15:33;;;;;;;0.00;0.00;;;;;;;;;;5052652;28;20580;-59
2022/01/28 01:18:49;;;;;;;0.00;0.00;;;;;;;;;;5052875;28;20024;-60
2022/01/28 01:23:21;;;;;;;0.00;0.00;;;;;;;;;;5052807;28;20021;-60
2022/01/28 01:26:06;;;;;;;0.00;0.00;;;;;;;;;;5052925;28;20248;-60
2022/01/28 01:28:35;;;;;;;0.00;0.00;;;;;;;;;;5052464;28;20484;-60
2022/01/28 01:31:02;;;;;;;0.00;0.00;;;;;;;;;;5052713;28;20025;-60
2022/01/28 01:33:34;;;;;;;0.00;0.00;;;;;;;;;;5052368;28;20020;-60
2022/01/28 01:35:59;;;;;;;0.13;0.00;;;;;;;;;;5052556;28;20013;-60
2022/01/28 01:38:27;;;;;;;0.00;0.00;;;;;;;;;;5052219;28;20094;-61
2022/01/28 01:40:57;;;;;;;0.00;0.00;;;;;;;;;;5051288;28;20044;-60
2022/01/28 01:43:40;;;;;;;0.00;0.00;;;;;;;;;;5052189;28;20017;-60
2022/01/28 01:46:26;;;;;;;0.00;0.00;;;;;;;;;;5052283;28;20020;-60
2022/01/28 01:54:19;;;;;;;0.00;0.00;;;;;;;;;;5051943;28;20258;-60
2022/01/28 01:56:45;;;;;;;0.80;0.00;;;;;;;;;;5052231;28;20029;-60
2022/01/28 01:59:10;;;;;;;0.00;0.00;;;;;;;;;;5051991;28;20025;-60
2022/01/28 02:01:36;;;;;;;0.00;0.00;;;;;;;;;;5051839;28;20029;-60
2022/01/28 02:04:01;;;;;;;0.00;0.00;;;;;;;;;;5051828;28;20025;-60
2022/01/28 02:06:27;;;;;;;0.00;0.00;;;;;;;;;;5051965;28;20453;-60
2022/01/28 02:08:53;;;;;;;0.00;0.00;;;;;;;;;;5052058;28;20040;-60
2022/01/28 02:11:18;;;;;;;0.00;0.00;;;;;;;;;;5050605;28;20115;-60
2022/01/28 02:13:52;;;;;;;0.00;0.00;;;;;;;;;;5051937;28;20242;-60
2022/01/28 02:16:18;;;;;;;;;;;;;;;;;;5052342;28;20048;-60
2022/01/28 02:18:43;;;;;;;0.00;0.00;;;;;;;;;;5052062;28;19940;-59
2022/01/28 02:21:11;;;;;;;0.00;0.00;;;;;;;;;;5052059;28;20435;-60
2022/01/28 02:23:37;;;;;;;0.10;0.10;;;;;;;;;;5051697;28;20025;-60
2022/01/28 02:26:03;;;;;;;0.00;0.00;;;;;;;;;;5051896;28;20051;-60
2022/01/28 02:28:31;;;;;;;0.00;0.00;;;;;;;;;;5051724;28;20048;-60
2022/01/28 02:30:57;;;;;;;0.00;0.00;;;;;;;;;;5052058;28;20041;-60
2022/01/28 02:33:25;;;;;;;0.00;0.00;;;;;;;;;;5051652;28;20052;-60
2022/01/28 02:35:51;;;;;;;0.00;0.00;;;;;;;;;;5051825;28;20021;-60
2022/01/28 02:38:17;;;;;;;0.00;0.00;;;;;;;;;;5051676;28;20067;-59
2022/01/28 02:40:48;;;;;;;0.00;0.00;;;;;;;;;;5051857;28;20091;-60
2022/01/28 02:46:04;;;;;;;0.00;0.00;;;;;;;;;;5051772;28;20376;-60
2022/01/28 02:48:31;;;;;;;0.00;0.00;;;;;;;;;;5051528;28;20017;-61
2022/01/28 02:53:27;;;;;;;0.00;0.00;;;;;;;;;;5051700;28;20525;-60
2022/01/28 02:56:02;;;;;;;0.00;0.00;;;;;;;;;;5051579;28;20025;-60
2022/01/28 02:58:28;;;;;;;0.00;0.00;;;;;;;;;;5051259;28;20017;-60
2022/01/28 03:00:54;;;;;;;0.00;0.00;;;;;;;;;;5051943;28;20051;-60
2022/01/28 03:03:22;;;;;;;0.00;0.00;;;;;;;;;;5051340;28;20029;-60
2022/01/28 03:05:47;;;;;;;0.00;0.00;;;;;;;;;;5051281;28;20025;-60
2022/01/28 03:08:13;;;;;;;0.00;0.00;;;;;;;;;;5050098;28;20086;-60
2022/01/28 03:15:32;;;;;;;0.00;0.00;;;;;;;;;;5055183;28;20013;-60
2022/01/28 03:18:11;;;;;;;0.00;0.00;;;;;;;;;;5055399;28;20044;-60
2022/01/28 03:20:42;;;;;;;0.00;0.00;;;;;;;;;;5055022;28;20025;-60
2022/01/28 03:23:07;;;;;;;0.00;0.00;;;;;;;;;;5055187;28;20480;-60
2022/01/28 03:25:35;;;;;;;0.00;0.00;;;;;;;;;;5054692;28;20047;-60
2022/01/28 03:28:00;;;;;;;0.00;0.00;;;;;;;;;;5054875;28;20021;-60
2022/01/28 03:30:26;;;;;;;0.00;0.00;;;;;;;;;;5054737;28;20017;-60
2022/01/28 03:32:51;;;;;;;0.00;0.00;;;;;;;;;;5055005;28;20016;-60
2022/01/28 03:35:18;;;;;;;0.00;0.00;;;;;;;;;;5054745;28;20036;-60
2022/01/28 03:37:43;;;;;;;0.00;0.00;;;;;;;;;;5054992;28;20075;-60
2022/01/28 03:40:09;;;;;;;0.00;0.00;;;;;;;;;;5054627;28;20020;-59
2022/01/28 03:42:35;;;;;;;0.00;0.00;;;;;;;;;;5054513;28;20250;-60
2022/01/28 03:45:00;;;;;;;0.00;0.00;;;;;;;;;;5055046;28;20027;-60
2022/01/28 03:47:25;;;;;;;0.00;0.00;;;;;;;;;;5054337;28;20108;-60
2022/01/28 03:49:51;;;;;;;0.00;0.00;;;;;;;;;;5054544;28;20025;-60
2022/01/28 03:52:16;;;;;;;0.00;0.00;;;;;;;;;;5054346;28;20658;-60
2022/01/28 03:54:41;;;;;;;0.00;0.00;;;;;;;;;;5054524;28;20017;-60
2022/01/28 03:57:07;;;;;;;0.00;0.00;;;;;;;;;;5054531;28;20059;-60
2022/01/28 03:59:33;;;;;;;0.00;0.00;;;;;;;;;;5054120;28;20032;-60
2022/01/28 04:01:58;;;;;;;0.00;0.00;;;;;;;;;;5054374;28;20484;-60
2022/01/28 04:11:27;;;;;;;0.00;0.00;;;;;;;;;;5053927;28;20060;-60
2022/01/28 04:12:26;;;;;;;0.00;0.00;;;;;;;;;;5053783;28;20023;-60
2022/01/28 04:17:28;;;;;;;0.00;0.00;;;;;;;;;;5053874;28;20017;-60
2022/01/28 04:19:53;;;;;;;0.00;0.00;;;;;;;;;;5053899;28;20484;-60
2022/01/28 04:22:19;;;;;;;0.00;0.00;;;;;;;;;;5053594;28;20025;-60
2022/01/28 04:24:45;;;;;;;0.00;0.00;;;;;;;;;;5053919;28;20066;-60
2022/01/28 04:27:10;;;;;;;0.00;0.00;;;;;;;;;;5053823;28;20060;-60
2022/01/28 04:29:35;;;;;;;0.00;0.00;;;;;;;;;;5053611;28;20275;-60
2022/01/28 04:32:01;;;;;;;0.00;0.00;;;;;;;;;;5053829;28;20017;-60
2022/01/28 04:34:26;;;;;;;0.00;0.00;;;;;;;;;;5053777;28;20278;-60
2022/01/28 04:39:53;;;;;;;0.00;0.00;;;;;;;;;;5053417;28;20484;-60
2022/01/28 04:42:34;;;;;;;0.00;0.00;;;;;;;;;;5053329;28;20029;-60
2022/01/28 04:45:11;;;;;;;0.00;0.00;;;;;;;;;;5052369;28;20028;-60
2022/01/28 04:47:45;;;;;;;0.00;0.00;;;;;;;;;;5053116;28;20044;-59
2022/01/28 04:55:59;;;;;;;0.00;0.00;;;;;;;;;;5053257;28;20025;-60
2022/01/28 04:58:29;;;;;;;0.00;0.00;;;;;;;;;;5052769;28;20048;-60
2022/01/28 05:01:16;;;;;;;0.00;0.00;;;;;;;;;;5053270;28;20096;-60
2022/01/28 05:09:31;;;;;;;0.00;0.00;;;;;;;;;;5053243;28;20028;-60
2022/01/28 05:17:21;;;;;;;0.00;0.00;;;;;;;;;;5053057;28;20435;-60
2022/01/28 05:27:58;;;;;;;0.00;0.00;;;;;;;;;;5052755;28;20028;-60
2022/01/28 05:30:23;;;;;;;0.00;0.00;;;;;;;;;;5052371;28;20025;-60
2022/01/28 05:32:48;;;;;;;0.00;0.00;;;;;;;;;;5052140;28;20039;-60
2022/01/28 05:35:13;;;;;;;0.00;0.00;;;;;;;;;;5052674;28;20013;-60
2022/01/28 05:37:38;;;;;;;0.00;0.00;;;;;;;;;;5052279;28;20300;-60
2022/01/28 05:40:04;;;;;;;0.00;0.00;;;;;;;;;;5052779;28;20472;-60
2022/01/28 05:42:29;;;;;;;0.00;0.00;;;;;;;;;;5052245;28;20020;-60
2022/01/28 05:44:54;;;;;;;0.00;0.00;;;;;;;;;;5052615;28;20036;-60
2022/01/28 05:47:21;;;;;;;0.00;0.00;;;;;;;;;;5052191;28;20273;-61
2022/01/28 05:49:46;;;;;;;0.00;0.00;;;;;;;;;;5052318;28;20250;-60
2022/01/28 05:52:11;;;;;;;0.00;0.00;;;;;;;;;;5052531;28;20075;-60
2022/01/28 05:54:36;;;;;;;0.00;0.00;;;;;;;;;;5052225;28;20059;-60
2022/01/28 05:57:02;;;;;;;0.00;0.00;;;;;;;;;;5052385;28;20246;-60
2022/01/28 05:59:27;;;;;;;0.00;0.00;;;;;;;;;;5051972;28;20380;-60
2022/01/28 06:01:52;;;;;;;0.00;0.00;;;;;;;;;;5050852;28;20480;-60
2022/01/28 06:04:21;;;;;;;0.00;0.00;;;;;;;;;;5051687;28;20289;-60
2022/01/28 06:06:46;;;;;;;0.00;0.00;;;;;;;;;;5051948;28;20041;-60
2022/01/28 06:09:11;;;;;;;0.00;0.00;;;;;;;;;;5052157;28;20139;-60
2022/01/28 06:11:38;;;;;;;0.00;0.00;;;;;;;;;;5051756;28;20028;-60
2022/01/28 06:14:03;;;;;;;0.00;0.00;;;;;;;;;;5051979;28;20242;-60
2022/01/28 06:16:28;;;;;;;0.00;0.00;;;;;;;;;;5051878;28;20329;-60
2022/01/28 06:18:53;;;;;;;0.00;0.00;;;;;;;;;;5052140;28;20032;-60
2022/01/28 06:21:19;;;;;;;0.00;0.00;;;;;;;;;;5051834;28;20075;-60
2022/01/28 06:23:44;;;;;;;0.00;0.00;;;;;;;;;;5052200;28;20353;-60
2022/01/28 06:26:09;;;;;;;0.00;0.00;;;;;;;;;;5052111;28;20063;-60
2022/01/28 06:28:34;;;;;;;0.00;0.00;;;;;;;;;;5051749;28;20036;-60
2022/01/28 06:31:00;;;;;;;0.03;0.03;;;;;;;;;;5052072;28;20250;-60
2022/01/28 06:33:25;;;;;;;0.00;0.00;;;;;;;;;;5051640;28;20048;-60
2022/01/28 06:35:51;;;;;;;0.00;0.00;;;;;;;;;;5051890;28;20021;-60
2022/01/28 06:38:16;;;;;;;0.00;0.00;;;;;;;;;;5051561;28;20108;-60
2022/01/28 06:40:41;;;;;;;0.00;0.00;;;;;;;;;;5052403;28;20040;-60
2022/01/28 06:43:11;;;;;;;0.00;0.00;;;;;;;;;;5051827;28;20461;-60
2022/01/28 06:45:36;;;;;;;0.00;0.00;;;;;;;;;;5055187;28;20037;-60
2022/01/28 06:48:02;;;;;;;0.10;0.10;;;;;;;;;;5055867;28;20173;-60
2022/01/28 06:50:27;;;;;;;0.00;0.00;;;;;;;;;;5055401;28;20025;-60
2022/01/28 06:52:52;;;;;;;0.00;0.00;;;;;;;;;;5055769;28;20198;-60
2022/01/28 06:55:17;;;;;;;0.00;0.00;;;;;;;;;;5055261;28;20341;-60
2022/01/28 06:57:42;;;;;;;0.00;0.00;;;;;;;;;;5055484;28;20380;-60
2022/01/28 07:00:09;;;;;;;0.00;0.00;;;;;;;;;;5055350;28;20304;-60
2022/01/28 07:02:34;;;;;;;0.00;0.00;;;;;;;;;;5055539;28;20495;-60
2022/01/28 07:04:59;;;;;;;0.00;0.00;;;;;;;;;;5055503;28;20029;-60
2022/01/28 07:07:25;;;;;;;0.00;0.00;;;;;;;;;;5054923;28;20126;-60
2022/01/28 07:09:51;;;;;;;0.10;0.00;;;;;;;;;;5055308;28;20163;-60
2022/01/28 07:12:16;;;;;;;0.00;0.00;;;;;;;;;;5055053;28;20021;-60
2022/01/28 07:14:41;;;;;;;0.00;0.00;;;;;;;;;;5055209;28;20095;-60
2022/01/28 07:17:06;;;;;;;0.00;0.00;;;;;;;;;;5055302;28;20424;-60
2022/01/28 07:19:31;;;;;;;0.00;0.00;;;;;;;;;;5054890;28;20523;-60
2022/01/28 07:21:58;;;;;;;0.00;0.00;;;;;;;;;;5055301;28;20283;-60
2022/01/28 07:24:23;;;;;;;0.00;0.00;;;;;;;;;;5054810;28;20052;-60
2022/01/28 07:26:48;;;;;;;0.00;0.00;;;;;;;;;;5055057;28;20056;-59
2022/01/28 07:29:14;;;;;;;0.00;0.00;;;;;;;;;;5055069;28;20029;-60
2022/01/28 07:31:40;;;;;;;0.00;0.00;;;;;;;;;;5054703;28;20066;-60
2022/01/28 07:34:06;;;;;;;0.00;0.00;;;;;;;;;;5054853;28;20025;-60
2022/01/28 07:36:32;;;;;;;0.00;0.00;;;;;;;;;;5054692;28;20031;-60
2022/01/28 07:38:57;;;;;;;0.00;0.00;;;;;;;;;;5054878;28;20457;-60
2022/01/28 07:41:22;;;;;;;0.00;0.00;;;;;;;;;;5048395;28;20017;-60
2022/01/28 07:43:48;;;;;;;0.00;0.00;;;;;;;;;;5045629;28;20054;-60
2022/01/28 07:46:13;;;;;;;0.00;0.00;;;;;;;;;;5048912;28;20357;-60
2022/01/28 07:48:38;;;;;;;0.00;0.00;;;;;;;;;;5044386;28;20035;-60
2022/01/28 07:51:03;;;;;;;0.00;0.00;;;;;;;;;;5036342;28;20426;-60
2022/01/28 07:53:29;;;;;;;0.00;0.00;;;;;;;;;;5035310;28;20032;-60
2022/01/28 07:55:54;;;;;;;0.00;0.00;;;;;;;;;;5044368;28;20033;-60
2022/01/28 07:58:19;;;;;;;0.70;0.00;;;;;;;;;;5046784;28;20108;-60
2022/01/28 08:00:44;;;;;;;0.00;0.00;;;;;;;;;;5035406;28;20052;-60
2022/01/28 08:03:09;;;;;;;0.00;0.00;;;;;;;;;;5034087;28;20354;-60
2022/01/28 08:05:34;;;;;;;0.00;0.00;;;;;;;;;;5046477;28;20104;-60
2022/01/28 08:08:04;;;;;;;0.00;0.00;;;;;;;;;;5033429;28;20049;-60
2022/01/28 08:10:30;;;;;;;1.30;0.00;;;;;;;;;;5036856;28;20021;-60
2022/01/28 08:12:56;;;;;;;0.47;0.00;;;;;;;;;;5033532;28;20218;-60
2022/01/28 08:15:22;;;;;;;0.20;0.20;;;;;;;;;;5033205;28;20054;-60
2022/01/28 08:17:48;;;;;;;0.10;0.00;;;;;;;;;;5033411;28;20017;-60
2022/01/28 08:20:13;;;;;;;3.88;0.77;;;;;;;;;;5033236;28;20021;-60
2022/01/28 08:22:48;;;;;;;0.68;0.30;;;;;;;;;;5033293;28;20017;-60
2022/01/28 08:25:13;;;;;;;5.97;0.47;;;;;;;;;;5048511;28;20055;-60
2022/01/28 08:27:41;;;;;;;3.67;0.22;;;;;;;;;;5042893;28;20473;-61
2022/01/28 08:30:06;;;;;;;2.03;0.43;;;;;;;;;;5033691;28;20481;-60
2022/01/28 08:32:31;;;;;;;1.33;0.22;;;;;;;;;;5033717;28;20104;-60
2022/01/28 08:34:56;;;;;;;0.40;0.10;;;;;;;;;;5033943;28;20033;-60
2022/01/28 08:37:22;;;;;;;1.05;0.10;;;;;;;;;;5043010;28;20043;-61
2022/01/28 08:39:49;;;;;;;2.97;0.27;;;;;;;;;;5055683;28;20063;-60
2022/01/28 08:42:16;;;;;;;0.73;0.20;;;;;;;;;;5048908;28;20076;-60
2022/01/28 08:44:41;;;;;;;0.30;0.10;;;;;;;;;;5033641;28;20027;-60
2022/01/28 08:47:06;;;;;;;1.17;0.10;;;;;;;;;;5033850;28;20026;-60
2022/01/28 08:49:32;;;;;;;1.43;0.10;;;;;;;;;;5036941;28;20263;-60
2022/01/28 08:51:58;;;;;;;0.40;0.10;;;;;;;;;;5046531;28;20563;-60
2022/01/28 08:54:23;;;;;;;1.00;0.20;;;;;;;;;;5042109;28;20023;-60
2022/01/28 08:56:48;;;;;;;0.40;0.10;;;;;;;;;;5053422;28;20055;-60
2022/01/28 08:59:13;;;;;;;0.20;0.00;;;;;;;;;;5038717;28;20357;-60
2022/01/28 09:01:38;;;;;;;0.40;0.20;;;;;;;;;;5046415;28;20265;-61
2022/01/28 09:04:03;;;;;;;0.03;0.03;;;;;;;;;;5053119;28;20596;-60
2022/01/28 09:06:29;;;;;;;0.20;0.00;;;;;;;;;;5052819;28;20045;-60
2022/01/28 09:08:58;;;;;;;1.48;0.10;;;;;;;;;;5052149;28;20277;-60
2022/01/28 09:13:50;;;;;;;0.22;0.00;;;;;;;;;;5052956;28;20100;-60
2022/01/28 09:16:17;;;;;;;0.73;0.00;;;;;;;;;;5052750;28;20147;-60
2022/01/28 09:18:42;;;;;;;0.15;0.00;;;;;;;;;;5052952;28;20025;-60
2022/01/28 09:21:07;;;;;;;0.53;0.10;;;;;;;;;;5053041;28;20025;-61
2022/01/28 09:23:32;;;;;;;0.20;0.00;;;;;;;;;;5052556;28;20039;-60
2022/01/28 09:25:58;;;;;;;0.00;0.00;;;;;;;;;;5053011;28;20258;-60
2022/01/28 09:28:23;;;;;;;0.43;0.23;;;;;;;;;;5052489;28;20065;-60
2022/01/28 09:30:48;;;;;;;0.00;0.00;;;;;;;;;;5052107;28;20253;-60
2022/01/28 09:33:13;;;;;;;0.00;0.00;;;;;;;;;;5052692;28;20070;-61
2022/01/28 09:35:41;;;;;;;0.10;0.00;;;;;;;;;;5052397;28;20029;-60
2022/01/28 09:38:06;;;;;;;0.00;0.00;;;;;;;;;;5052520;28;20238;-60
2022/01/28 09:40:31;;;;;;;0.10;0.00;;;;;;;;;;5052335;28;20017;-60
2022/01/28 09:42:56;;;;;;;0.00;0.00;;;;;;;;;;5052577;28;20274;-60
2022/01/28 09:45:23;;;;;;;0.30;0.00;;;;;;;;;;5052223;28;20250;-60
2022/01/28 09:47:52;;;;;;;0.10;0.10;;;;;;;;;;5052609;28;20266;-60
2022/01/28 09:50:17;;;;;;;0.10;0.00;;;;;;;;;;5052099;28;20075;-61
2022/01/28 09:52:42;;;;;;;0.00;0.00;;;;;;;;;;5052384;28;20536;-61
2022/01/28 09:55:08;;;;;;;0.00;0.00;;;;;;;;;;5052373;28;20470;-60
2022/01/28 09:57:33;;;;;;;0.00;0.00;;;;;;;;;;5051997;28;20017;-60
2022/01/28 09:59:58;;;;;;;0.00;0.00;;;;;;;;;;5052533;28;20028;-60
2022/01/28 10:02:43;;;;;;;0.00;0.00;;;;;;;;;;5051926;28;20025;-60
2022/01/28 10:05:19;;;;;;;0.00;0.00;;;;;;;;;;5050463;28;20025;-60
2022/01/28 10:08:04;;;;;;;0.10;0.10;;;;;;;;;;5051901;28;20084;-60
2022/01/28 10:10:40;;;;;;;0.00;0.00;;;;;;;;;;5051884;28;20369;-60
2022/01/28 10:13:10;;;;;;;0.00;0.00;;;;;;;;;;5052088;28;20063;-60
2022/01/28 10:15:36;;;;;;;0.03;0.03;;;;;;;;;;5051754;28;20063;-60
2022/01/28 10:18:01;;;;;;;0.00;0.00;;;;;;;;;;5051991;28;20021;-60
2022/01/28 10:20:27;;;;;;;0.07;0.03;;;;;;;;;;5051566;28;20036;-60
2022/01/28 10:22:54;;;;;;;0.10;0.00;;;;;;;;;;5052088;28;20288;-60
2022/01/28 10:25:23;;;;;;;0.00;0.00;;;;;;;;;;5051800;28;20100;-61
2022/01/28 10:28:01;;;;;;;0.00;0.00;;;;;;;;;;5051827;28;20014;-60
2022/01/28 10:30:27;;;;;;;0.00;0.00;;;;;;;;;;5052037;28;20021;-60
2022/01/28 10:33:11;;;;;;;0.00;0.00;;;;;;;;;;5052009;28;20368;-60
2022/01/28 10:35:36;;;;;;;0.00;0.00;;;;;;;;;;5051623;28;20393;-60
2022/01/28 10:38:02;;;;;;;0.00;0.00;;;;;;;;;;5051775;28;20047;-60
2022/01/28 10:40:28;;;;;;;0.00;0.00;;;;;;;;;;5051616;28;20025;-61
2022/01/28 10:42:53;;;;;;;0.00;0.00;;;;;;;;;;5051866;28;20021;-61
2022/01/28 10:45:20;;;;;;;0.00;0.00;;;;;;;;;;5051696;28;20024;-60
2022/01/28 10:47:49;;;;;;;0.00;0.00;;;;;;;;;;5051625;28;20020;-60
2022/01/28 10:50:15;;;;;;;0.00;0.00;;;;;;;;;;5050285;28;20017;-61
2022/01/28 10:52:40;;;;;;;0.00;0.00;;;;;;;;;;5051757;28;20027;-61
2022/01/28 10:55:05;;;;;;;0.00;0.00;;;;;;;;;;5051873;28;20226;-60
2022/01/28 10:57:30;;;;;;;0.00;0.00;;;;;;;;;;5051411;28;20423;-60
2022/01/28 10:59:56;;;;;;;0.00;0.00;;;;;;;;;;5051603;28;20484;-60
2022/01/28 11:02:24;;;;;;;0.00;0.00;;;;;;;;;;5051411;28;20108;-61
2022/01/28 11:04:51;;;;;;;0.00;0.00;;;;;;;;;;5051707;28;20028;-60
2022/01/28 11:07:16;;;;;;;0.00;0.00;;;;;;;;;;5050015;28;20242;-60
2022/01/28 11:09:41;;;;;;;0.00;0.00;;;;;;;;;;5051972;28;20100;-60
2022/01/28 11:12:07;;;;;;;0.00;0.00;;;;;;;;;;5051474;28;20644;-60
2022/01/28 11:14:32;;;;;;;0.00;0.00;;;;;;;;;;5051302;28;20029;-60
2022/01/28 11:16:58;;;;;;;0.00;0.00;;;;;;;;;;5051684;28;20068;-60
2022/01/28 11:19:27;;;;;;;0.00;0.00;;;;;;;;;;5049998;28;20116;-61
2022/01/28 11:21:58;;;;;;;0.00;0.00;;;;;;;;;;5051451;28;20059;-60
2022/01/28 11:24:35;;;;;;;0.00;0.00;;;;;;;;;;5051235;28;20064;-60
2022/01/28 11:27:07;;;;;;;0.00;0.00;;;;;;;;;;5051485;28;20018;-61
2022/01/28 11:29:32;;;;;;;0.00;0.00;;;;;;;;;;5051487;28;20403;-61
2022/01/28 11:31:58;;;;;;;0.00;0.00;;;;;;;;;;5053724;28;20054;-60
2022/01/28 11:34:23;;;;;;;0.00;0.00;;;;;;;;;;5053457;28;20269;-61
2022/01/28 11:36:49;;;;;;;0.00;0.00;;;;;;;;;;5054945;28;20009;-60
2022/01/28 11:39:20;;;;;;;0.00;0.00;;;;;;;;;;5054852;28;20341;-60
2022/01/28 11:42:12;;;;;;;0.00;0.00;;;;;;;;;;5054711;28;20080;-60
2022/01/28 11:44:41;;;;;;;0.00;0.00;;;;;;;;;;5032535;28;20420;-61
2022/01/28 11:47:08;;;;;;;0.00;0.00;;;;;;;;;;5034762;28;20389;-61
2022/01/28 11:49:50;;;;;;;0.00;0.00;;;;;;;;;;5034495;28;20109;-60
2022/01/28 11:52:29;;;;;;;0.00;0.00;;;;;;;;;;5034429;28;20083;-60
2022/01/28 11:54:55;;;;;;;0.00;0.00;;;;;;;;;;5046350;28;20025;-60
2022/01/28 11:57:22;;;;;;;0.00;0.00;;;;;;;;;;5053000;28;20087;-60
2022/01/28 11:59:48;;;;;;;0.00;0.00;;;;;;;;;;5053162;28;20021;-60
2022/01/28 12:02:14;;;;;;;0.00;0.00;;;;;;;;;;5054214;28;20139;-61
2022/01/28 12:04:40;;;;;;;0.00;0.00;;;;;;;;;;5054051;28;20060;-61
2022/01/28 12:07:13;;;;;;;0.00;0.00;;;;;;;;;;5054137;28;20037;-60
2022/01/28 12:09:41;;;;;;;0.00;0.00;;;;;;;;;;5053990;28;20056;-60
2022/01/28 12:12:10;;;;;;;0.00;0.00;;;;;;;;;;5054101;28;20044;-61
2022/01/28 12:14:52;;;;;;;0.00;0.00;;;;;;;;;;5054052;28;20108;-60
2022/01/28 12:17:30;;;;;;;0.00;0.00;;;;;;;;;;5054035;28;20480;-60
2022/01/28 12:20:14;;;;;;;0.00;0.00;;;;;;;;;;5053974;28;20032;-60
2022/01/28 12:23:09;;;;;;;0.00;0.00;;;;;;;;;;5054035;28;20501;-61
2022/01/28 12:25:40;;;;;;;0.00;0.00;;;;;;;;;;5050957;28;20063;-60
2022/01/28 12:28:24;;;;;;;0.00;0.00;;;;;;;;;;5051354;28;20104;-60
2022/01/28 12:31:02;;;;;;;0.00;0.00;;;;;;;;;;5051554;28;20091;-60
2022/01/28 12:33:28;;;;;;;0.00;0.00;;;;;;;;;;5051051;28;20067;-61
2022/01/28 12:35:56;;;;;;;0.00;0.00;;;;;;;;;;5051287;28;20039;-61
2022/01/28 12:38:24;;;;;;;0.00;0.00;;;;;;;;;;5050964;28;20538;-60
2022/01/28 12:40:52;;;;;;;0.00;0.00;;;;;;;;;;5051321;28;20060;-60
2022/01/28 12:43:22;;;;;;;0.00;0.00;;;;;;;;;;5041048;28;20108;-60
2022/01/28 12:45:55;;;;;;;0.00;0.00;;;;;;;;;;5031126;28;20541;-60
2022/01/28 12:48:21;;;;;;;0.00;0.00;;;;;;;;;;5030860;28;20568;-61
2022/01/28 12:50:50;;;;;;;0.00;0.00;;;;;;;;;;5031126;28;20121;-60
2022/01/28 12:53:35;;;;;;;0.00;0.00;;;;;;;;;;5031053;28;20017;-60
2022/01/28 12:56:01;;;;;;;0.00;0.00;;;;;;;;;;5030477;28;20034;-61
2022/01/28 12:58:32;;;;;;;0.00;0.00;;;;;;;;;;5030662;28;20534;-60
2022/01/28 13:01:04;;;;;;;0.20;0.00;;;;;;;;;;5032718;28;20025;-60
2022/01/28 13:03:36;;;;;;;0.00;0.00;;;;;;;;;;5051701;28;20063;-60
2022/01/28 13:09:06;;;;;;;;;;;;;;;;;;5051035;28;20033;-60
2022/01/28 13:11:31;;;;;;;0.00;0.00;;;;;;;;;;5050284;28;19905;-61
2022/01/28 13:13:57;;;;;;;0.00;0.00;;;;;;;;;;5050417;28;20040;-60
2022/01/28 13:16:32;;;;;;;0.00;0.00;;;;;;;;;;5050311;28;20059;-60
2022/01/28 13:18:58;;;;;;;0.00;0.00;;;;;;;;;;5050744;28;20051;-60
2022/01/28 13:21:23;;;;;;;0.00;0.00;;;;;;;;;;5032591;28;20394;-60
2022/01/28 13:23:48;;;;;;;0.00;0.00;;;;;;;;;;5050401;28;20075;-61
2022/01/28 13:26:13;;;;;;;0.00;0.00;;;;;;;;;;5048173;28;20062;-61
2022/01/28 13:28:40;;;;;;;0.00;0.00;;;;;;;;;;5043415;28;20036;-61
2022/01/28 13:31:05;;;;;;;0.00;0.00;;;;;;;;;;5023005;28;20066;-60
2022/01/28 13:33:31;;;;;;;0.00;0.00;;;;;;;;;;5049680;28;20324;-61
2022/01/28 13:35:57;;;;;;;0.00;0.00;;;;;;;;;;5050228;28;20025;-61
2022/01/28 13:38:22;;;;;;;0.00;0.00;;;;;;;;;;5049852;28;20113;-61
2022/01/28 13:40:48;;;;;;;0.00;0.00;;;;;;;;;;5049735;28;20116;-60
2022/01/28 13:43:14;;;;;;;0.00;0.00;;;;;;;;;;5033312;28;20107;-61
2022/01/28 13:45:48;;;;;;;0.00;0.00;;;;;;;;;;5050458;28;20041;-60
2022/01/28 13:48:18;;;;;;;0.00;0.00;;;;;;;;;;5050738;28;20463;-61
2022/01/28 13:50:44;;;;;;;0.00;0.00;;;;;;;;;;5052240;28;20032;-60
2022/01/28 13:55:52;;;;;;;0.00;0.00;;;;;;;;;;5047843;28;20020;-60
2022/01/28 13:58:17;;;;;;;0.00;0.00;;;;;;;;;;5038455;28;20056;-61
2022/01/28 14:00:46;;;;;;;0.00;0.00;;;;;;;;;;5045909;28;20055;-60
2022/01/28 14:03:14;;;;;;;0.00;0.00;;;;;;;;;;5051421;28;20016;-61
2022/01/28 14:05:50;;;;;;;0.00;0.00;;;;;;;;;;5051171;28;20048;-60
2022/01/28 14:08:15;;;;;;;0.00;0.00;;;;;;;;;;5051831;28;20496;-60
2022/01/28 14:10:41;;;;;;;0.00;0.00;;;;;;;;;;5051759;28;20025;-61
2022/01/28 14:13:19;;;;;;;0.00;0.00;;;;;;;;;;5052032;28;20040;-60
2022/01/28 14:15:53;;;;;;;0.00;0.00;;;;;;;;;;5051971;28;20017;-61
2022/01/28 14:18:18;;;;;;;0.00;0.00;;;;;;;;;;5051766;28;20024;-60
2022/01/28 14:20:43;;;;;;;0.00;0.00;;;;;;;;;;5051993;28;20032;-60
2022/01/28 14:23:09;;;;;;;0.00;0.00;;;;;;;;;;5051931;28;20021;-60
2022/01/28 14:25:34;;;;;;;0.00;0.00;;;;;;;;;;5051581;28;20491;-61
2022/01/28 14:28:12;;;;;;;0.00;0.00;;;;;;;;;;5052145;28;20364;-61
2022/01/28 14:30:40;;;;;;;0.00;0.00;;;;;;;;;;5050124;28;20035;-61
2022/01/28 14:33:06;;;;;;;0.00;0.00;;;;;;;;;;5051862;28;20028;-60
2022/01/28 14:35:32;;;;;;;0.00;0.00;;;;;;;;;;5051531;28;20396;-61
2022/01/28 14:37:57;;;;;;;0.00;0.00;;;;;;;;;;5051929;28;20025;-60
2022/01/28 14:40:22;;;;;;;0.00;0.00;;;;;;;;;;5051539;28;20024;-61
2022/01/28 14:42:47;;;;;;;0.00;0.00;;;;;;;;;;5051681;28;20040;-60
2022/01/28 14:45:12;;;;;;;0.00;0.00;;;;;;;;;;5051609;28;20285;-61
2022/01/28 14:47:38;;;;;;;0.00;0.00;;;;;;;;;;5051344;28;20313;-60
2022/01/28 14:50:05;;;;;;;0.00;0.00;;;;;;;;;;5050922;28;20049;-60
2022/01/28 14:52:30;;;;;;;0.00;0.00;;;;;;;;;;5058222;28;20016;-60
2022/01/28 14:54:56;;;;;;;0.00;0.00;;;;;;;;;;5071740;28;20017;-60
2022/01/28 14:57:22;;;;;;;0.00;0.00;;;;;;;;;;5071648;28;20020;-60
2022/01/28 14:59:48;;;;;;;0.00;0.00;;;;;;;;;;5070520;28;20375;-61
2022/01/28 15:02:14;;;;;;;0.00;0.00;;;;;;;;;;5071320;28;20025;-61
2022/01/28 15:04:40;;;;;;;0.00;0.00;;;;;;;;;;5071544;28;20055;-61
2022/01/28 15:07:05;;;;;;;0.00;0.00;;;;;;;;;;5074156;28;20052;-61
2022/01/28 15:09:31;;;;;;;0.00;0.00;;;;;;;;;;5057043;28;20254;-61
2022/01/28 15:11:57;;;;;;;0.00;0.00;;;;;;;;;;5055047;28;20018;-60
2022/01/28 15:14:24;;;;;;;0.00;0.00;;;;;;;;;;5054779;28;20530;-61
2022/01/28 15:16:50;;;;;;;0.00;0.00;;;;;;;;;;5055151;28;20478;-60
2022/01/28 15:19:15;;;;;;;0.00;0.00;;;;;;;;;;5054947;28;20033;-60
2022/01/28 15:21:44;;;;;;;0.00;0.00;;;;;;;;;;5054773;28;20468;-60
2022/01/28 15:24:11;;;;;;;0.00;0.00;;;;;;;;;;5054581;28;20028;-61
2022/01/28 15:26:37;;;;;;;0.00;0.00;;;;;;;;;;5054744;28;20021;-61
2022/01/28 15:29:04;;;;;;;0.00;0.00;;;;;;;;;;5054868;28;20047;-62
2022/01/28 15:36:49;;;;;;;0.00;0.00;;;;;;;;;;5055056;28;20025;-60
2022/01/28 15:39:14;;;;;;;0.00;0.00;;;;;;;;;;5054756;28;20020;-60
2022/01/28 15:41:40;;;;;;;0.00;0.00;;;;;;;;;;5054493;28;20506;-60
2022/01/28 15:44:05;;;;;;;0.00;0.00;;;;;;;;;;5054641;28;20261;-60
2022/01/28 15:46:30;;;;;;;0.00;0.00;;;;;;;;;;5045272;28;20025;-60
2022/01/28 15:48:56;;;;;;;0.00;0.00;;;;;;;;;;5036435;28;20159;-60
2022/01/28 15:51:21;;;;;;;0.00;0.00;;;;;;;;;;5063940;28;20091;-60
2022/01/28 15:53:46;;;;;;;0.00;0.00;;;;;;;;;;5069021;28;20025;-60
2022/01/28 15:56:12;;;;;;;0.00;0.00;;;;;;;;;;5051122;28;20056;-60
2022/01/28 15:58:38;;;;;;;0.00;0.00;;;;;;;;;;5052620;28;20276;-60
2022/01/28 16:01:03;;;;;;;0.10;0.00;;;;;;;;;;5061414;28;20021;-60
2022/01/28 16:03:28;;;;;;;0.00;0.00;;;;;;;;;;5056774;28;20017;-60
2022/01/28 16:05:54;;;;;;;0.00;0.00;;;;;;;;;;5066668;28;20425;-60
2022/01/28 16:08:20;;;;;;;0.00;0.00;;;;;;;;;;5066636;28;20296;-60
2022/01/28 16:11:13;;;;;;;0.00;0.00;;;;;;;;;;5054388;28;20017;-60
2022/01/28 16:13:52;;;;;;;0.00;0.00;;;;;;;;;;5053785;28;20216;-60
2022/01/28 16:19:01;;;;;;;0.00;0.00;;;;;;;;;;5054667;28;20032;-60